This is the latest recevied weather packets stored in our database for station/object DM2KB-13. If no packets are shown the sender has not sent any weather packets the latest 10 day(s).
| Time | Temp. | Humidity | Pressure | Rain* | Wind** | Luminosity | Snow |
|---|---|---|---|---|---|---|---|
| 1778154465 | 15° C | 67% | 1014.7 hPa | 0 mm | - | 1072 W/m² | - |
| 1778154165 | 15° C | 66% | 1014.6 hPa | 0 mm | - | 279 W/m² | - |
| 1778153864 | 15.56° C | 66% | 1014.7 hPa | 0 mm | - | 283 W/m² | - |
| 1778153564 | 15.56° C | 66% | 1014.7 hPa | 0 mm | - | 949 W/m² | - |
| 1778153264 | 15.56° C | 69% | 1014.8 hPa | 0 mm | - | 944 W/m² | - |
| 1778152964 | 15° C | 68% | 1014.8 hPa | 0 mm | - | 940 W/m² | - |
| 1778152663 | 15° C | 73% | 1014.7 hPa | 0 mm | - | 909 W/m² | - |
| 1778152363 | 14.44° C | 75% | 1014.8 hPa | 0 mm | - | 949 W/m² | - |
| 1778152063 | 14.44° C | 72% | 1014.8 hPa | 0 mm | - | 295 W/m² | - |
| 1778151762 | 14.44° C | 72% | 1014.7 hPa | 0 mm | - | 239 W/m² | - |
| 1778151462 | 13.89° C | 74% | 1014.7 hPa | 0 mm | - | 867 W/m² | - |
| 1778151162 | 13.89° C | 72% | 1014.7 hPa | 0 mm | - | 425 W/m² | - |
| 1778150862 | 13.89° C | 74% | 1014.7 hPa | 0 mm | - | 345 W/m² | - |
| 1778150561 | 13.89° C | 72% | 1014.7 hPa | 0 mm | - | 281 W/m² | - |
| 1778150261 | 13.89° C | 72% | 1014.7 hPa | 0 mm | - | 281 W/m² | - |
| 1778149961 | 14.44° C | 70% | 1014.7 hPa | 0 mm | - | 251 W/m² | - |
| 1778149660 | 14.44° C | 74% | 1014.6 hPa | 0 mm | - | 997 W/m² | - |
| 1778149360 | 13.89° C | 73% | 1014.6 hPa | 0 mm | - | 981 W/m² | - |
| 1778149060 | 13.89° C | 76% | 1014.6 hPa | 0 mm | - | 889 W/m² | - |
| 1778148760 | 13.33° C | 75% | 1014.6 hPa | 0 mm | - | 197 W/m² | - |
| 1778148459 | 13.89° C | 76% | 1014.5 hPa | 0 mm | - | 251 W/m² | - |
| 1778148159 | 13.33° C | 77% | 1014.4 hPa | 0 mm | - | 907 W/m² | - |
| 1778147859 | 13.33° C | 75% | 1014.4 hPa | 0 mm | - | 367 W/m² | - |
| 1778147558 | 13.89° C | 74% | 1014.5 hPa | 0 mm | - | 367 W/m² | - |
| 1778147258 | 13.89° C | 73% | 1014.5 hPa | 0 mm | - | 369 W/m² | - |
* Rain latest hour (hover to see other rain measurements)
** Current wind speed in m/s (hover to see current wind gust speed)